createdAt,value
2019-01-09T00:00:44.908Z,2.90
2019-01-09T00:03:13.904Z,2.90
2019-01-09T00:05:42.791Z,2.90
2019-01-09T00:08:11.918Z,2.90
2019-01-09T00:10:40.804Z,2.90
2019-01-09T00:13:09.731Z,3.00
2019-01-09T00:15:38.655Z,3.00
2019-01-09T00:18:07.669Z,2.90
2019-01-09T00:20:36.756Z,2.90
2019-01-09T00:23:05.720Z,2.90
2019-01-09T00:25:34.643Z,2.90
2019-01-09T00:28:03.685Z,2.90
2019-01-09T00:30:32.585Z,3.00
2019-01-09T00:33:01.713Z,2.90
2019-01-09T00:35:37.153Z,2.90
2019-01-09T00:38:01.162Z,2.80
2019-01-09T00:40:31.067Z,2.80
2019-01-09T00:42:59.932Z,2.90
2019-01-09T00:45:28.922Z,2.90
2019-01-09T00:47:57.887Z,2.90
2019-01-09T00:50:26.800Z,2.90
2019-01-09T00:52:55.811Z,2.90
2019-01-09T00:55:24.848Z,2.90
2019-01-09T00:57:53.832Z,2.90
2019-01-09T01:00:22.964Z,2.80
2019-01-09T01:03:15.856Z,2.80
2019-01-09T01:05:59.279Z,2.90
2019-01-09T01:08:33.959Z,2.80
2019-01-09T01:11:14.882Z,2.80
2019-01-09T01:14:05.883Z,2.90
2019-01-09T01:16:43.311Z,2.80
2019-01-09T01:19:27.002Z,2.80
2019-01-09T01:21:59.156Z,2.70
2019-01-09T01:24:39.425Z,2.40
2019-01-09T01:27:23.370Z,2.10
2019-01-09T01:30:20.619Z,2.10
2019-01-09T01:33:04.440Z,2.20
2019-01-09T01:35:41.841Z,2.30
2019-01-09T01:38:34.616Z,2.30
2019-01-09T01:41:09.500Z,2.40
2019-01-09T01:43:44.092Z,2.40
2019-01-09T01:46:25.154Z,2.40
2019-01-09T01:49:05.799Z,2.50
2019-01-09T01:51:52.465Z,2.60
2019-01-09T01:54:45.210Z,2.60
2019-01-09T01:57:39.134Z,2.60
2019-01-09T02:00:23.038Z,2.50
2019-01-09T02:03:00.439Z,2.40
2019-01-09T02:05:40.915Z,2.20
2019-01-09T02:08:18.555Z,2.00
2019-01-09T02:11:17.248Z,1.90
2019-01-09T02:13:57.570Z,1.80
2019-01-09T02:16:41.144Z,1.70
2019-01-09T02:19:12.962Z,1.60
2019-01-09T02:21:50.320Z,1.40
2019-01-09T02:24:31.026Z,1.10
2019-01-09T02:27:14.601Z,1.40
2019-01-09T02:29:58.041Z,1.30
2019-01-09T02:32:33.087Z,1.30
2019-01-09T02:35:02.169Z,1.40
2019-01-09T02:37:31.096Z,1.50
2019-01-09T02:40:00.013Z,1.60
2019-01-09T02:42:29.093Z,1.70
2019-01-09T02:44:58.025Z,1.60
2019-01-09T02:47:26.910Z,1.60
2019-01-09T02:49:55.842Z,1.50
2019-01-09T02:52:24.718Z,1.50
2019-01-09T02:54:53.585Z,1.50
2019-01-09T02:57:24.541Z,1.50
2019-01-09T02:59:53.045Z,1.50
2019-01-09T03:02:21.957Z,1.60
2019-01-09T03:04:50.893Z,1.60
2019-01-09T03:07:19.937Z,1.70
2019-01-09T03:09:49.448Z,1.60
2019-01-09T03:12:18.347Z,1.70
2019-01-09T03:14:47.267Z,1.70
2019-01-09T03:17:16.155Z,1.70
2019-01-09T03:19:45.232Z,1.70
2019-01-09T03:22:14.189Z,1.80
2019-01-09T03:24:43.069Z,1.80
2019-01-09T03:27:12.013Z,1.80
2019-01-09T03:29:41.177Z,1.80
2019-01-09T03:32:10.083Z,1.80
2019-01-09T03:34:38.982Z,1.80
2019-01-09T03:37:07.869Z,1.80
2019-01-09T03:39:36.865Z,1.80
2019-01-09T03:42:05.743Z,1.80
2019-01-09T03:44:34.619Z,1.90
2019-01-09T03:47:03.544Z,1.80
2019-01-09T03:49:32.433Z,1.80
2019-01-09T03:52:01.402Z,1.80
2019-01-09T03:54:30.439Z,1.70
2019-01-09T03:56:59.333Z,1.70
2019-01-09T03:59:28.260Z,1.80
2019-01-09T04:01:57.130Z,1.70
2019-01-09T04:04:26.071Z,1.80
2019-01-09T04:06:54.952Z,1.80
2019-01-09T04:09:23.818Z,1.80
2019-01-09T04:11:52.744Z,1.80
2019-01-09T04:14:21.645Z,1.70
2019-01-09T04:16:50.673Z,1.70
2019-01-09T04:19:19.985Z,1.70
2019-01-09T04:21:48.868Z,1.70
2019-01-09T04:24:17.794Z,1.70
2019-01-09T04:26:46.664Z,1.80
2019-01-09T04:29:15.639Z,2.00
2019-01-09T04:31:44.511Z,2.00
2019-01-09T04:34:13.371Z,2.00
2019-01-09T04:36:51.115Z,2.00
2019-01-09T04:39:12.824Z,2.00
2019-01-09T04:41:41.737Z,2.00
2019-01-09T04:44:13.395Z,1.90
2019-01-09T04:46:42.278Z,1.50
2019-01-09T04:49:11.199Z,1.20
2019-01-09T04:51:40.293Z,1.00
2019-01-09T04:54:09.234Z,0.70
2019-01-09T04:56:38.121Z,0.60
2019-01-09T04:59:06.990Z,0.40
2019-01-09T05:01:35.912Z,0.30
2019-01-09T05:04:04.795Z,0.30
2019-01-09T05:06:33.734Z,0.30
2019-01-09T05:09:02.674Z,0.30
2019-01-09T05:11:31.561Z,0.30
2019-01-09T05:14:00.495Z,0.20
2019-01-09T05:16:29.360Z,0.20
2019-01-09T05:18:58.291Z,0.20
2019-01-09T05:21:27.195Z,0.10
2019-01-09T05:23:56.134Z,0.10
2019-01-09T05:26:25.032Z,0.10
2019-01-09T05:28:53.907Z,0.10
2019-01-09T05:31:22.837Z,0.10
2019-01-09T05:33:52.762Z,0.10
2019-01-09T05:36:21.689Z,0.00
2019-01-09T05:38:50.764Z,0.00
2019-01-09T05:41:19.652Z,0.00
2019-01-09T05:43:48.567Z,0.00
2019-01-09T05:46:17.484Z,-0.10
2019-01-09T05:48:46.442Z,-0.10
2019-01-09T05:51:15.451Z,0.00
2019-01-09T05:53:44.395Z,0.00
2019-01-09T05:56:15.100Z,0.10
2019-01-09T05:58:43.967Z,0.30
2019-01-09T06:01:12.905Z,0.50
2019-01-09T06:03:41.802Z,0.60
2019-01-09T06:06:10.709Z,0.80
2019-01-09T06:08:39.632Z,0.80
2019-01-09T06:11:08.527Z,0.80
2019-01-09T06:13:37.488Z,0.80
2019-01-09T06:16:06.372Z,0.80
2019-01-09T06:18:35.293Z,0.90
2019-01-09T06:21:04.183Z,0.90
2019-01-09T06:23:33.042Z,0.90
2019-01-09T06:26:02.013Z,0.90
2019-01-09T06:28:30.965Z,0.90
2019-01-09T06:30:59.877Z,0.80
2019-01-09T06:33:28.753Z,0.80
2019-01-09T06:35:58.850Z,0.80
2019-01-09T06:38:27.770Z,0.80
2019-01-09T06:40:56.668Z,0.80
2019-01-09T06:43:25.602Z,0.80
2019-01-09T06:45:54.488Z,0.80
2019-01-09T06:48:23.386Z,0.80
2019-01-09T06:50:52.696Z,0.80
2019-01-09T06:53:21.593Z,0.80
2019-01-09T06:55:50.512Z,0.70
2019-01-09T06:58:20.293Z,0.70
2019-01-09T07:00:49.339Z,0.70
2019-01-09T07:03:18.287Z,0.60
2019-01-09T07:05:47.256Z,0.60
2019-01-09T07:08:16.134Z,0.60
2019-01-09T07:10:45.700Z,0.60
2019-01-09T07:13:14.564Z,0.50
2019-01-09T07:15:43.490Z,0.60
2019-01-09T07:18:12.408Z,0.50
2019-01-09T07:20:41.287Z,0.50
2019-01-09T07:23:10.247Z,0.40
2019-01-09T07:25:39.317Z,0.40
2019-01-09T07:28:08.259Z,0.40
2019-01-09T07:30:37.141Z,0.40
2019-01-09T07:33:06.039Z,0.40
2019-01-09T07:35:34.962Z,0.40
2019-01-09T07:38:03.891Z,0.40
2019-01-09T07:40:32.835Z,0.50
2019-01-09T07:43:01.718Z,0.50
2019-01-09T07:45:30.668Z,0.50
2019-01-09T07:47:59.573Z,0.50
2019-01-09T07:50:28.542Z,0.50
2019-01-09T07:52:57.424Z,0.50
2019-01-09T07:55:26.295Z,0.50
2019-01-09T07:57:55.223Z,0.60
2019-01-09T08:00:24.294Z,0.60
2019-01-09T08:02:53.220Z,0.60
2019-01-09T08:05:22.146Z,0.70
2019-01-09T08:07:54.224Z,0.70
2019-01-09T08:10:21.669Z,0.70
2019-01-09T08:12:50.545Z,0.70
2019-01-09T08:15:19.486Z,0.70
2019-01-09T08:17:48.361Z,0.70
2019-01-09T08:20:17.265Z,0.70
2019-01-09T08:22:46.149Z,0.70
2019-01-09T08:25:15.044Z,0.70
2019-01-09T08:27:43.990Z,0.70
2019-01-09T08:30:12.973Z,0.70
2019-01-09T08:32:41.867Z,0.70
2019-01-09T08:35:10.795Z,0.70
2019-01-09T08:37:39.688Z,0.70
2019-01-09T08:40:09.447Z,0.70
2019-01-09T08:42:38.353Z,0.70
2019-01-09T08:45:07.875Z,0.70
2019-01-09T08:47:36.803Z,0.70
2019-01-09T08:50:07.734Z,0.70
2019-01-09T08:52:38.359Z,0.70
2019-01-09T08:55:08.643Z,0.80
2019-01-09T08:57:37.559Z,0.80
2019-01-09T09:00:09.757Z,0.90
2019-01-09T09:02:38.619Z,1.00
2019-01-09T09:05:07.680Z,1.00
2019-01-09T09:07:39.384Z,1.00
2019-01-09T09:10:10.484Z,1.00
2019-01-09T09:12:39.426Z,1.00
2019-01-09T09:15:14.133Z,1.10
2019-01-09T09:17:43.061Z,1.10
2019-01-09T09:20:13.250Z,1.10
2019-01-09T09:22:42.199Z,1.00
2019-01-09T09:25:11.229Z,1.10
2019-01-09T09:27:40.093Z,1.00
2019-01-09T09:30:15.277Z,1.00
2019-01-09T09:32:44.170Z,1.00
2019-01-09T09:35:13.804Z,1.10
2019-01-09T09:37:42.720Z,1.00
2019-01-09T09:40:17.792Z,1.00
2019-01-09T09:42:46.721Z,0.90
2019-01-09T09:45:15.614Z,1.00
2019-01-09T09:47:44.570Z,0.90
2019-01-09T09:50:16.193Z,0.90
2019-01-09T09:52:45.062Z,1.00
2019-01-09T09:55:14.096Z,1.00
2019-01-09T09:57:42.964Z,1.00
2019-01-09T10:00:17.612Z,1.00
2019-01-09T10:02:46.489Z,1.10
2019-01-09T10:05:15.384Z,1.20
2019-01-09T10:07:44.408Z,1.20
2019-01-09T10:10:15.138Z,1.10
2019-01-09T10:12:44.078Z,1.10
2019-01-09T10:15:17.102Z,1.00
2019-01-09T10:17:45.972Z,1.00
2019-01-09T10:20:16.808Z,1.00
2019-01-09T10:22:46.389Z,0.90
2019-01-09T10:25:15.348Z,0.90
2019-01-09T10:27:44.293Z,0.90
2019-01-09T10:30:15.867Z,0.90
2019-01-09T10:32:44.753Z,0.80
2019-01-09T10:35:13.793Z,0.80
2019-01-09T10:37:42.980Z,0.90
2019-01-09T10:40:19.928Z,0.80
2019-01-09T10:42:48.815Z,0.70
2019-01-09T10:45:20.119Z,0.70
2019-01-09T10:47:49.115Z,0.70
2019-01-09T10:50:18.627Z,0.80
2019-01-09T10:52:47.901Z,0.80
2019-01-09T10:55:18.596Z,0.90
2019-01-09T10:57:47.502Z,0.90
2019-01-09T11:00:19.398Z,1.00
2019-01-09T11:02:48.389Z,1.10
2019-01-09T11:05:17.492Z,1.10
2019-01-09T11:07:46.551Z,1.10
2019-01-09T11:10:17.864Z,1.10
2019-01-09T11:12:46.812Z,1.10
2019-01-09T11:15:15.900Z,1.10
2019-01-09T11:17:44.887Z,1.10
2019-01-09T11:20:18.278Z,1.00
2019-01-09T11:22:47.252Z,1.00
2019-01-09T11:25:24.308Z,1.00
2019-01-09T11:27:53.392Z,1.00
2019-01-09T11:30:22.373Z,1.00
2019-01-09T11:32:51.286Z,1.00
2019-01-09T11:35:22.467Z,1.10
2019-01-09T11:37:53.084Z,1.20
2019-01-09T11:40:22.250Z,1.20
2019-01-09T11:42:51.152Z,1.20
2019-01-09T11:45:20.824Z,1.30
2019-01-09T11:47:50.028Z,1.30
2019-01-09T11:50:19.273Z,1.40
2019-01-09T11:52:49.004Z,1.40
2019-01-09T11:55:17.892Z,1.60
2019-01-09T11:57:46.912Z,1.40
2019-01-09T12:00:21.552Z,1.50
2019-01-09T12:02:50.549Z,1.50
2019-01-09T12:05:19.602Z,1.50
2019-01-09T12:07:48.593Z,1.50
2019-01-09T12:10:19.743Z,1.50
2019-01-09T12:12:48.633Z,1.50
2019-01-09T12:15:18.576Z,1.60
2019-01-09T12:17:47.435Z,1.60
2019-01-09T12:20:18.401Z,1.60
2019-01-09T12:22:47.476Z,1.50
2019-01-09T12:25:16.514Z,1.50
2019-01-09T12:27:45.384Z,1.60
2019-01-09T12:30:25.458Z,1.60
2019-01-09T12:32:54.536Z,1.60
2019-01-09T12:35:23.416Z,1.60
2019-01-09T12:37:52.324Z,1.60
2019-01-09T12:40:21.976Z,1.50
2019-01-09T12:42:50.932Z,1.50
2019-01-09T12:45:20.442Z,1.50
2019-01-09T12:47:49.393Z,1.50
2019-01-09T12:50:21.302Z,1.40
2019-01-09T12:52:50.160Z,1.30
2019-01-09T12:55:19.057Z,1.20
2019-01-09T12:57:47.997Z,1.10
2019-01-09T13:00:24.878Z,1.00
2019-01-09T13:02:53.912Z,0.90
2019-01-09T13:05:23.095Z,0.90
2019-01-09T13:07:52.004Z,0.90
2019-01-09T13:10:21.050Z,0.90
2019-01-09T13:12:52.587Z,0.90
2019-01-09T13:15:21.047Z,0.90
2019-01-09T13:17:49.926Z,0.80
2019-01-09T13:20:18.854Z,0.80
2019-01-09T13:22:47.761Z,0.70
2019-01-09T13:25:16.642Z,0.70
2019-01-09T13:27:45.543Z,0.60
2019-01-09T13:30:19.315Z,0.60
2019-01-09T13:32:48.227Z,0.50
2019-01-09T13:35:17.322Z,0.40
2019-01-09T13:37:46.313Z,0.30
2019-01-09T13:40:19.916Z,0.30
2019-01-09T13:42:48.863Z,0.30
2019-01-09T13:45:19.435Z,0.20
2019-01-09T13:47:48.889Z,0.20
2019-01-09T13:50:19.239Z,0.20
2019-01-09T13:52:48.524Z,0.10
2019-01-09T13:55:17.833Z,0.10
2019-01-09T13:57:47.531Z,0.10
2019-01-09T14:00:18.489Z,0.10
2019-01-09T14:02:47.623Z,0.10
2019-01-09T14:05:16.752Z,0.10
2019-01-09T14:07:45.995Z,0.10
2019-01-09T14:10:22.928Z,0.10
2019-01-09T14:12:51.887Z,0.10
2019-01-09T14:15:22.107Z,0.10
2019-01-09T14:17:51.282Z,0.00
2019-01-09T14:20:20.446Z,0.10
2019-01-09T14:22:49.371Z,0.00
2019-01-09T14:25:18.515Z,0.00
2019-01-09T14:27:47.409Z,0.00
2019-01-09T14:30:21.804Z,0.00
2019-01-09T14:32:50.691Z,0.00
2019-01-09T14:35:19.683Z,0.00
2019-01-09T14:37:48.686Z,0.00
2019-01-09T14:40:20.118Z,0.00
2019-01-09T14:42:49.250Z,0.00
2019-01-09T14:45:19.032Z,0.00
2019-01-09T14:47:48.260Z,0.00
2019-01-09T14:50:19.681Z,0.00
2019-01-09T14:52:48.738Z,0.00
2019-01-09T14:55:18.266Z,0.00
2019-01-09T14:57:47.563Z,0.00
2019-01-09T15:00:20.784Z,0.00
2019-01-09T15:02:50.232Z,0.00
2019-01-09T15:05:19.386Z,0.00
2019-01-09T15:07:48.679Z,0.00
2019-01-09T15:10:25.917Z,0.00
2019-01-09T15:12:55.219Z,0.00
2019-01-09T15:15:24.322Z,0.00
2019-01-09T15:17:53.515Z,0.00
2019-01-09T15:20:22.495Z,0.00
2019-01-09T15:22:51.413Z,0.00
2019-01-09T15:25:20.746Z,0.00
2019-01-09T15:27:50.536Z,0.00
2019-01-09T15:30:22.298Z,0.00
2019-01-09T15:32:52.871Z,0.00
2019-01-09T15:35:22.207Z,0.00
2019-01-09T15:37:51.528Z,0.00
2019-01-09T15:40:27.114Z,0.10
2019-01-09T15:42:56.456Z,0.10
2019-01-09T15:45:26.022Z,0.00
2019-01-09T15:47:56.772Z,0.00
2019-01-09T15:50:27.594Z,0.10
2019-01-09T15:52:56.803Z,0.00
2019-01-09T15:55:26.221Z,0.00
2019-01-09T15:57:55.827Z,0.00
2019-01-09T16:00:34.758Z,0.00
2019-01-09T16:03:04.312Z,0.00
2019-01-09T16:05:33.487Z,0.00
2019-01-09T16:08:02.917Z,0.00
2019-01-09T16:10:32.053Z,0.00
2019-01-09T16:13:01.366Z,0.00
2019-01-09T16:15:30.689Z,-0.10
2019-01-09T16:17:59.931Z,-0.10
2019-01-09T16:20:29.568Z,-0.10
2019-01-09T16:22:58.677Z,-0.10
2019-01-09T16:25:28.308Z,-0.10
2019-01-09T16:27:57.617Z,-0.10
2019-01-09T16:30:38.667Z,0.00
2019-01-09T16:33:07.862Z,-0.10
2019-01-09T16:35:38.073Z,0.00
2019-01-09T16:38:07.410Z,0.00
2019-01-09T16:40:36.719Z,-0.10
2019-01-09T16:43:05.837Z,0.00
2019-01-09T16:45:35.043Z,0.00
2019-01-09T16:48:04.293Z,0.00
2019-01-09T16:50:33.656Z,0.00
2019-01-09T16:53:02.696Z,0.00
2019-01-09T16:55:31.920Z,0.00
2019-01-09T16:58:01.339Z,0.00
2019-01-09T17:00:37.163Z,0.00
2019-01-09T17:03:06.518Z,0.00
2019-01-09T17:05:36.137Z,0.00
2019-01-09T17:08:05.854Z,0.00
2019-01-09T17:10:35.314Z,0.00
2019-01-09T17:13:04.741Z,0.00
2019-01-09T17:15:34.006Z,0.00
2019-01-09T17:18:03.621Z,0.00
2019-01-09T17:20:34.581Z,0.00
2019-01-09T17:23:03.882Z,0.00
2019-01-09T17:25:33.103Z,0.00
2019-01-09T17:28:02.315Z,0.00
2019-01-09T17:30:32.414Z,0.00
2019-01-09T17:33:01.641Z,0.00
2019-01-09T17:35:30.771Z,0.00
2019-01-09T17:37:59.973Z,0.00
2019-01-09T17:40:29.243Z,0.00
2019-01-09T17:42:58.362Z,0.00
2019-01-09T17:45:27.553Z,0.00
2019-01-09T17:47:56.769Z,0.00
2019-01-09T17:50:34.217Z,0.00
2019-01-09T17:53:03.424Z,0.00
2019-01-09T17:55:32.686Z,0.00
2019-01-09T17:58:01.872Z,0.00
2019-01-09T18:00:33.555Z,0.00
2019-01-09T18:03:03.171Z,0.00
2019-01-09T18:05:32.596Z,0.00
2019-01-09T18:08:10.160Z,0.00
2019-01-09T18:10:32.587Z,0.00
2019-01-09T18:13:01.660Z,0.10
2019-01-09T18:15:30.980Z,0.10
2019-01-09T18:18:00.277Z,0.10
2019-01-09T18:20:29.373Z,0.10
2019-01-09T18:22:58.659Z,0.10
2019-01-09T18:25:29.850Z,0.00
2019-01-09T18:27:59.441Z,0.00
2019-01-09T18:30:34.526Z,0.10
2019-01-09T18:33:06.958Z,0.10
2019-01-09T18:35:39.296Z,0.10
2019-01-09T18:38:16.125Z,0.10
2019-01-09T18:41:08.153Z,0.20
2019-01-09T18:43:58.295Z,0.10
2019-01-09T18:46:36.028Z,0.10
2019-01-09T18:49:20.154Z,0.10
2019-01-09T18:52:02.034Z,0.10
2019-01-09T18:54:31.388Z,0.10
2019-01-09T18:57:00.942Z,0.10
2019-01-09T18:59:30.246Z,0.10
2019-01-09T19:01:59.503Z,0.20
2019-01-09T19:04:28.741Z,0.20
2019-01-09T19:06:58.305Z,0.20
2019-01-09T19:09:27.507Z,0.20
2019-01-09T19:11:56.746Z,0.20
2019-01-09T19:14:26.057Z,0.20
2019-01-09T19:16:56.275Z,0.20
2019-01-09T19:19:25.573Z,0.20
2019-01-09T19:21:54.784Z,0.20
2019-01-09T19:24:23.989Z,0.20
2019-01-09T19:26:53.266Z,0.20
2019-01-09T19:29:22.406Z,0.30
2019-01-09T19:31:52.788Z,0.20
2019-01-09T19:34:22.004Z,0.30
2019-01-09T19:36:52.702Z,0.30
2019-01-09T19:39:23.356Z,0.30
2019-01-09T19:41:52.532Z,0.30
2019-01-09T19:44:21.712Z,0.30
2019-01-09T19:46:50.986Z,0.30
2019-01-09T19:49:23.801Z,0.40
2019-01-09T19:51:53.224Z,0.40
2019-01-09T19:54:22.473Z,0.30
2019-01-09T19:56:53.011Z,0.30
2019-01-09T19:59:22.314Z,0.30
2019-01-09T20:01:51.601Z,0.30
2019-01-09T20:04:20.849Z,0.30
2019-01-09T20:06:50.142Z,0.30
2019-01-09T20:09:19.269Z,0.20
2019-01-09T20:11:48.708Z,0.30
2019-01-09T20:14:19.343Z,0.30
2019-01-09T20:16:49.176Z,0.30
2019-01-09T20:19:19.129Z,0.30
2019-01-09T20:21:48.301Z,0.30
2019-01-09T20:24:19.451Z,0.30
2019-01-09T20:26:49.030Z,0.30
2019-01-09T20:29:18.301Z,0.30
2019-01-09T20:31:47.638Z,0.30
2019-01-09T20:34:16.962Z,0.30
2019-01-09T20:36:46.059Z,0.30
2019-01-09T20:39:15.541Z,0.30
2019-01-09T20:41:44.795Z,0.30
2019-01-09T20:44:14.032Z,0.30
2019-01-09T20:46:43.376Z,0.30
2019-01-09T20:49:12.671Z,0.30
2019-01-09T20:51:42.576Z,0.40
2019-01-09T20:54:12.332Z,0.40
2019-01-09T20:56:41.641Z,0.40
2019-01-09T20:59:10.913Z,0.40
2019-01-09T21:01:40.218Z,0.40
2019-01-09T21:04:09.616Z,0.30
2019-01-09T21:06:39.037Z,0.30
2019-01-09T21:09:08.840Z,0.30
2019-01-09T21:11:44.217Z,0.40
2019-01-09T21:14:08.781Z,0.40
2019-01-09T21:16:38.146Z,0.40
2019-01-09T21:19:07.584Z,0.40
2019-01-09T21:21:36.974Z,0.40
2019-01-09T21:24:54.127Z,0.40
2019-01-09T21:27:23.443Z,0.40
2019-01-09T21:29:52.749Z,0.40
2019-01-09T21:32:22.997Z,0.50
2019-01-09T21:34:52.249Z,0.50
2019-01-09T21:37:21.562Z,0.40
2019-01-09T21:39:50.922Z,0.40
2019-01-09T21:42:20.310Z,0.40
2019-01-09T21:44:49.508Z,0.40
2019-01-09T21:47:18.794Z,0.40
2019-01-09T21:49:47.964Z,0.40
2019-01-09T21:52:17.263Z,0.40
2019-01-09T21:54:47.755Z,0.40
2019-01-09T21:57:16.887Z,0.40
2019-01-09T21:59:46.200Z,0.40
2019-01-09T22:02:15.593Z,0.40
2019-01-09T22:04:44.780Z,0.40
2019-01-09T22:07:15.395Z,0.40
2019-01-09T22:09:44.590Z,0.40
2019-01-09T22:12:14.206Z,0.40
2019-01-09T22:14:43.354Z,0.40
2019-01-09T22:17:13.224Z,0.40
2019-01-09T22:19:42.281Z,0.40
2019-01-09T22:22:11.503Z,0.40
2019-01-09T22:24:40.611Z,0.40
2019-01-09T22:27:09.686Z,0.40
2019-01-09T22:29:39.033Z,0.40
2019-01-09T22:32:08.087Z,0.40
2019-01-09T22:34:37.069Z,0.40
2019-01-09T22:37:06.013Z,0.40
2019-01-09T22:39:35.166Z,0.30
2019-01-09T22:42:11.812Z,0.30
2019-01-09T22:44:34.782Z,0.30
2019-01-09T22:47:03.756Z,0.30
2019-01-09T22:49:32.661Z,0.30
2019-01-09T22:52:01.569Z,0.30
2019-01-09T22:54:36.287Z,0.30
2019-01-09T22:57:01.005Z,0.30
2019-01-09T22:59:29.964Z,0.30
2019-01-09T23:01:58.905Z,0.30
2019-01-09T23:04:27.988Z,0.30
2019-01-09T23:06:56.936Z,0.30
2019-01-09T23:09:25.875Z,0.30
2019-01-09T23:11:54.930Z,0.40
2019-01-09T23:14:23.804Z,0.40
2019-01-09T23:16:52.669Z,0.40
2019-01-09T23:19:21.662Z,0.40
2019-01-09T23:21:50.641Z,0.40
2019-01-09T23:24:34.694Z,0.40
2019-01-09T23:27:03.728Z,0.40
2019-01-09T23:29:32.675Z,0.40
2019-01-09T23:32:01.535Z,0.40
2019-01-09T23:34:30.487Z,0.40
2019-01-09T23:36:59.404Z,0.40
2019-01-09T23:39:28.386Z,0.40
2019-01-09T23:41:57.352Z,0.40
2019-01-09T23:44:26.220Z,0.40
2019-01-09T23:46:55.205Z,0.40
2019-01-09T23:49:24.204Z,0.40
2019-01-09T23:51:53.110Z,0.40
2019-01-09T23:54:22.035Z,0.30
2019-01-09T23:56:50.914Z,0.30
2019-01-09T23:59:19.905Z,0.40
